createdAt,value
2022-10-04T00:01:45.256Z,6.30
2022-10-04T00:04:19.301Z,6.30
2022-10-04T00:07:06.401Z,6.30
2022-10-04T00:09:58.332Z,6.20
2022-10-04T00:12:46.661Z,6.30
2022-10-04T00:15:22.629Z,6.30
2022-10-04T00:18:11.442Z,6.20
2022-10-04T00:20:53.675Z,6.10
2022-10-04T00:23:23.542Z,6.00
2022-10-04T00:26:24.149Z,5.90
2022-10-04T00:28:52.353Z,5.90
2022-10-04T00:31:25.157Z,5.70
2022-10-04T00:34:08.644Z,5.60
2022-10-04T00:36:45.728Z,5.60
2022-10-04T00:39:16.272Z,5.60
2022-10-04T00:41:49.163Z,5.60
2022-10-04T00:44:53.552Z,5.50
2022-10-04T00:47:27.361Z,5.50
2022-10-04T00:50:17.759Z,5.50
2022-10-04T00:52:51.830Z,5.50
2022-10-04T00:55:41.722Z,5.50
2022-10-04T00:58:22.090Z,5.50
2022-10-04T01:00:49.709Z,5.50
2022-10-04T01:03:26.834Z,5.50
2022-10-04T01:05:57.465Z,5.60
2022-10-04T01:08:54.111Z,5.60
2022-10-04T01:11:34.430Z,5.70
2022-10-04T01:14:04.580Z,5.70
2022-10-04T01:16:36.408Z,5.80
2022-10-04T01:19:22.187Z,5.80
2022-10-04T01:22:05.210Z,5.90
2022-10-04T01:24:43.088Z,5.80
2022-10-04T01:27:33.300Z,5.80
2022-10-04T01:30:00.928Z,5.80
2022-10-04T01:32:28.013Z,5.80
2022-10-04T01:34:56.348Z,5.80
2022-10-04T01:37:23.403Z,5.80
2022-10-04T01:39:50.275Z,5.70
2022-10-04T01:42:27.505Z,5.60
2022-10-04T01:45:09.398Z,5.60
2022-10-04T01:47:48.802Z,5.60
2022-10-04T01:50:23.240Z,5.60
2022-10-04T01:53:08.598Z,5.60
2022-10-04T01:55:37.617Z,5.60
2022-10-04T01:58:19.260Z,5.60
2022-10-04T02:01:10.399Z,5.70
2022-10-04T02:03:52.620Z,5.70
2022-10-04T02:06:21.434Z,5.80
2022-10-04T02:08:51.426Z,5.80
2022-10-04T02:11:21.933Z,5.90
2022-10-04T02:13:51.619Z,5.90
2022-10-04T02:16:19.617Z,5.90
2022-10-04T02:18:48.261Z,5.90
2022-10-04T02:21:16.276Z,5.90
2022-10-04T02:23:45.115Z,5.80
2022-10-04T02:26:12.773Z,5.70
2022-10-04T02:28:40.202Z,5.70
2022-10-04T02:31:26.913Z,5.60
2022-10-04T02:34:02.494Z,5.60
2022-10-04T02:36:30.483Z,5.70
2022-10-04T02:39:26.854Z,5.70
2022-10-04T02:42:03.635Z,5.70
2022-10-04T02:44:35.426Z,5.70
2022-10-04T02:47:18.639Z,5.70
2022-10-04T02:49:53.202Z,5.80
2022-10-04T02:52:38.493Z,5.80
2022-10-04T02:55:15.123Z,5.90
2022-10-04T02:57:43.468Z,5.80
2022-10-04T03:00:19.658Z,5.90
2022-10-04T03:03:16.093Z,5.80
2022-10-04T03:06:04.995Z,5.80
2022-10-04T03:08:44.632Z,5.90
2022-10-04T03:11:14.055Z,5.90
2022-10-04T03:13:44.529Z,5.90
2022-10-04T03:16:14.449Z,5.90
2022-10-04T03:18:43.003Z,5.90
2022-10-04T03:21:14.679Z,5.90
2022-10-04T03:23:43.251Z,5.90
2022-10-04T03:26:24.296Z,6.10
2022-10-04T03:28:51.626Z,5.80
2022-10-04T03:31:19.965Z,5.80
2022-10-04T03:33:47.952Z,5.80
2022-10-04T03:36:18.970Z,6.30
2022-10-04T03:38:48.637Z,5.80
2022-10-04T03:41:16.712Z,5.80
2022-10-04T03:43:46.917Z,5.80
2022-10-04T03:46:14.598Z,5.70
2022-10-04T03:48:50.254Z,5.70
2022-10-04T03:51:21.349Z,5.70
2022-10-04T03:53:51.286Z,5.80
2022-10-04T03:56:30.798Z,5.80
2022-10-04T03:59:07.183Z,5.80
2022-10-04T04:01:50.375Z,5.80
2022-10-04T04:04:22.271Z,5.80
2022-10-04T04:07:21.212Z,5.80
2022-10-04T04:10:16.883Z,5.70
2022-10-04T04:12:58.724Z,5.70
2022-10-04T04:15:37.355Z,5.70
2022-10-04T04:18:11.004Z,5.60
2022-10-04T04:20:38.605Z,5.70
2022-10-04T04:23:23.941Z,5.80
2022-10-04T04:25:58.400Z,5.70
2022-10-04T04:28:49.126Z,5.80
2022-10-04T04:31:31.992Z,5.80
2022-10-04T04:34:04.550Z,5.90
2022-10-04T04:36:38.820Z,6.00
2022-10-04T04:39:36.010Z,5.90
2022-10-04T04:42:33.367Z,5.90
2022-10-04T04:45:02.338Z,5.90
2022-10-04T04:47:42.484Z,5.80
2022-10-04T04:50:15.506Z,5.90
2022-10-04T04:52:52.115Z,5.90
2022-10-04T04:55:25.286Z,5.80
2022-10-04T04:57:56.096Z,5.80
2022-10-04T05:00:29.799Z,5.80
2022-10-04T05:03:02.710Z,5.90
2022-10-04T05:05:34.879Z,5.90
2022-10-04T05:08:16.842Z,5.90
2022-10-04T05:10:46.770Z,6.00
2022-10-04T05:13:15.490Z,6.00
2022-10-04T05:15:43.350Z,6.10
2022-10-04T05:18:35.543Z,6.10
2022-10-04T05:21:28.575Z,6.10
2022-10-04T05:23:57.579Z,6.20
2022-10-04T05:26:31.022Z,6.20
2022-10-04T05:29:07.751Z,6.20
2022-10-04T05:31:56.279Z,6.20
2022-10-04T05:34:28.827Z,6.20
2022-10-04T05:37:06.654Z,6.20
2022-10-04T05:39:46.408Z,6.30
2022-10-04T05:42:19.312Z,6.30
2022-10-04T05:44:54.452Z,6.40
2022-10-04T05:47:25.131Z,6.40
2022-10-04T05:49:55.615Z,6.40
2022-10-04T05:52:38.550Z,6.40
2022-10-04T05:55:40.079Z,6.40
2022-10-04T05:58:25.424Z,6.40
2022-10-04T06:01:01.215Z,6.50
2022-10-04T06:03:47.589Z,6.50
2022-10-04T06:07:10.503Z,6.50
2022-10-04T06:09:55.894Z,6.50
2022-10-04T06:12:44.414Z,6.60
2022-10-04T06:15:45.396Z,6.60
2022-10-04T06:18:30.983Z,6.60
2022-10-04T06:21:17.721Z,6.70
2022-10-04T06:23:52.358Z,6.70
2022-10-04T06:26:25.142Z,6.70
2022-10-04T06:29:02.976Z,6.80
2022-10-04T06:31:57.354Z,6.80
2022-10-04T06:34:41.649Z,6.80
2022-10-04T06:37:32.679Z,6.90
2022-10-04T06:40:49.794Z,6.90
2022-10-04T06:43:26.982Z,7.00
2022-10-04T06:46:05.680Z,7.50
2022-10-04T06:48:55.313Z,7.10
2022-10-04T06:51:53.148Z,7.10
2022-10-04T06:54:53.953Z,7.20
2022-10-04T06:57:42.502Z,7.20
2022-10-04T07:00:26.400Z,7.30
2022-10-04T07:02:58.248Z,7.40
2022-10-04T07:05:47.391Z,7.50
2022-10-04T07:08:32.546Z,7.70
2022-10-04T07:11:12.423Z,7.70
2022-10-04T07:14:02.495Z,7.60
2022-10-04T07:17:01.953Z,7.80
2022-10-04T07:19:40.177Z,7.90
2022-10-04T07:22:07.002Z,8.00
2022-10-04T07:24:58.099Z,8.10
2022-10-04T07:27:43.712Z,8.10
2022-10-04T07:30:16.959Z,8.10
2022-10-04T07:32:46.582Z,8.30
2022-10-04T07:35:42.598Z,8.50
2022-10-04T07:38:18.063Z,8.70
2022-10-04T07:41:10.818Z,8.90
2022-10-04T07:43:49.793Z,9.10
2022-10-04T07:46:24.143Z,9.10
2022-10-04T07:48:51.137Z,9.20
2022-10-04T07:51:26.804Z,9.40
2022-10-04T07:54:19.434Z,9.50
2022-10-04T07:57:02.673Z,9.50
2022-10-04T07:59:44.573Z,9.60
2022-10-04T08:02:31.527Z,9.60
2022-10-04T08:05:45.628Z,9.80
2022-10-04T08:08:21.357Z,10.00
2022-10-04T08:10:56.519Z,10.20
2022-10-04T08:13:45.462Z,10.30
2022-10-04T08:16:36.188Z,10.30
2022-10-04T08:19:26.006Z,10.40
2022-10-04T08:22:26.919Z,10.30
2022-10-04T08:25:26.778Z,10.40
2022-10-04T08:28:40.793Z,10.50
2022-10-04T08:31:35.333Z,10.50
2022-10-04T08:34:08.201Z,10.30
2022-10-04T08:36:47.010Z,10.40
2022-10-04T08:39:37.136Z,10.60
2022-10-04T08:42:22.743Z,10.70
2022-10-04T08:45:04.192Z,10.80
2022-10-04T08:48:01.697Z,11.10
2022-10-04T08:50:49.620Z,11.30
2022-10-04T08:53:48.843Z,11.30
2022-10-04T08:56:27.371Z,11.60
2022-10-04T08:58:57.104Z,11.60
2022-10-04T09:01:45.482Z,12.40
2022-10-04T09:04:18.486Z,11.80
2022-10-04T09:07:11.465Z,11.90
2022-10-04T09:09:52.229Z,12.20
2022-10-04T09:12:51.930Z,13.00
2022-10-04T09:15:21.990Z,13.90
2022-10-04T09:18:26.323Z,15.10
2022-10-04T09:23:57.219Z,17.60
2022-10-04T09:26:43.446Z,19.10
2022-10-04T09:29:25.610Z,19.30
2022-10-04T09:32:10.877Z,18.50
2022-10-04T09:34:49.805Z,18.50
2022-10-04T09:37:28.630Z,17.90
2022-10-04T09:40:30.661Z,18.00
2022-10-04T09:43:28.661Z,17.50
2022-10-04T09:46:02.145Z,17.10
2022-10-04T09:48:40.008Z,17.50
2022-10-04T09:51:25.466Z,18.20
2022-10-04T09:54:32.283Z,18.90
2022-10-04T09:57:55.925Z,19.90
2022-10-04T10:00:26.583Z,20.90
2022-10-04T10:03:13.406Z,21.80
2022-10-04T10:06:04.082Z,22.30
2022-10-04T10:08:45.860Z,22.50
2022-10-04T10:11:48.840Z,22.30
2022-10-04T10:14:56.326Z,22.00
2022-10-04T10:17:40.752Z,22.30
2022-10-04T10:20:49.153Z,22.40
2022-10-04T10:23:56.548Z,22.80
2022-10-04T10:26:44.249Z,23.60
2022-10-04T10:29:32.412Z,24.10
2022-10-04T10:32:25.354Z,23.60
2022-10-04T10:35:16.273Z,23.50
2022-10-04T10:38:15.965Z,22.30
2022-10-04T10:41:04.737Z,22.00
2022-10-04T10:44:02.392Z,21.50
2022-10-04T10:47:08.625Z,22.80
2022-10-04T10:49:38.349Z,22.80
2022-10-04T10:52:20.268Z,23.00
2022-10-04T10:55:08.080Z,22.90
2022-10-04T10:58:00.455Z,22.60
2022-10-04T11:01:06.404Z,22.20
2022-10-04T11:04:12.444Z,22.80
2022-10-04T11:06:57.485Z,23.80
2022-10-04T11:09:32.926Z,23.90
2022-10-04T11:12:54.250Z,23.90
2022-10-04T11:15:58.500Z,23.90
2022-10-04T11:18:47.498Z,23.80
2022-10-04T11:21:29.450Z,22.80
2022-10-04T11:24:26.220Z,22.80
2022-10-04T11:27:25.604Z,23.10
2022-10-04T11:29:55.707Z,23.30
2022-10-04T11:32:37.496Z,23.00
2022-10-04T11:35:30.217Z,22.80
2022-10-04T11:38:15.870Z,23.10
2022-10-04T11:41:20.340Z,22.80
2022-10-04T11:44:15.977Z,22.80
2022-10-04T11:47:16.158Z,22.80
2022-10-04T11:49:46.126Z,22.70
2022-10-04T11:52:31.916Z,22.80
2022-10-04T11:55:20.641Z,23.10
2022-10-04T11:58:22.802Z,22.60
2022-10-04T12:01:11.374Z,21.70
2022-10-04T12:03:50.223Z,22.00
2022-10-04T12:06:17.236Z,21.70
2022-10-04T12:09:04.949Z,21.90
2022-10-04T12:11:57.086Z,22.00
2022-10-04T12:14:27.137Z,22.30
2022-10-04T12:17:11.484Z,22.40
2022-10-04T12:20:00.312Z,22.40
2022-10-04T12:22:36.064Z,21.90
2022-10-04T12:25:16.345Z,22.40
2022-10-04T12:27:45.956Z,22.40
2022-10-04T12:30:31.728Z,22.40
2022-10-04T12:33:13.588Z,22.00
2022-10-04T12:35:51.411Z,22.00
2022-10-04T12:38:49.715Z,22.40
2022-10-04T12:42:00.930Z,22.30
2022-10-04T12:44:41.049Z,22.10
2022-10-04T12:47:26.701Z,22.00
2022-10-04T12:50:02.810Z,22.30
2022-10-04T12:52:40.134Z,22.10
2022-10-04T12:55:20.072Z,21.40
2022-10-04T12:58:03.635Z,21.30
2022-10-04T13:00:37.569Z,21.40
2022-10-04T13:03:13.713Z,21.20
2022-10-04T13:05:46.559Z,21.40
2022-10-04T13:08:47.046Z,21.60
2022-10-04T13:11:35.313Z,21.20
2022-10-04T13:14:17.145Z,21.30
2022-10-04T13:20:12.252Z,21.70
2022-10-04T13:23:01.798Z,21.50
2022-10-04T13:26:04.055Z,20.80
2022-10-04T13:28:53.019Z,20.00
2022-10-04T13:31:35.022Z,19.60
2022-10-04T13:34:19.946Z,19.50
2022-10-04T13:37:03.733Z,19.50
2022-10-04T13:39:51.320Z,19.30
2022-10-04T13:42:36.820Z,19.30
2022-10-04T13:45:34.853Z,19.00
2022-10-04T13:48:44.262Z,18.80
2022-10-04T13:52:10.090Z,18.50
2022-10-04T13:55:19.234Z,18.20
2022-10-04T13:58:02.224Z,18.20
2022-10-04T14:00:54.008Z,17.70
2022-10-04T14:03:45.610Z,17.60
2022-10-04T14:06:20.499Z,17.00
2022-10-04T14:09:13.231Z,16.90
2022-10-04T14:12:04.154Z,16.90
2022-10-04T14:14:57.541Z,16.80
2022-10-04T14:17:33.655Z,16.80
2022-10-04T14:20:55.471Z,16.80
2022-10-04T14:23:40.793Z,16.70
2022-10-04T14:26:13.681Z,16.60
2022-10-04T14:28:57.177Z,16.60
2022-10-04T14:31:43.801Z,16.50
2022-10-04T14:34:30.078Z,16.50
2022-10-04T14:37:23.608Z,16.50
2022-10-04T14:40:28.908Z,16.40
2022-10-04T14:43:15.592Z,16.50
2022-10-04T14:45:51.972Z,16.40
2022-10-04T14:48:39.669Z,16.40
2022-10-04T14:51:26.719Z,16.30
2022-10-04T14:54:01.667Z,16.20
2022-10-04T14:56:28.515Z,16.10
2022-10-04T14:59:39.869Z,16.10
2022-10-04T15:02:31.890Z,16.10
2022-10-04T15:05:11.495Z,16.00
2022-10-04T15:07:46.865Z,16.00
2022-10-04T15:10:31.860Z,16.00
2022-10-04T15:13:23.727Z,15.90
2022-10-04T15:16:15.229Z,15.90
2022-10-04T15:18:44.994Z,16.00
2022-10-04T15:21:32.227Z,15.90
2022-10-04T15:24:20.591Z,15.90
2022-10-04T15:27:12.814Z,15.80
2022-10-04T15:30:11.661Z,15.80
2022-10-04T15:33:06.622Z,15.80
2022-10-04T15:35:42.310Z,15.70
2022-10-04T15:38:50.755Z,15.70
2022-10-04T15:41:45.930Z,15.60
2022-10-04T15:44:45.105Z,15.60
2022-10-04T15:47:21.031Z,15.50
2022-10-04T15:50:04.200Z,15.40
2022-10-04T15:53:00.432Z,15.40
2022-10-04T15:55:50.377Z,15.40
2022-10-04T15:58:39.775Z,15.30
2022-10-04T16:01:53.454Z,15.20
2022-10-04T16:04:44.860Z,15.20
2022-10-04T16:07:36.660Z,15.10
2022-10-04T16:10:47.192Z,15.00
2022-10-04T16:13:45.469Z,14.90
2022-10-04T16:16:18.451Z,14.80
2022-10-04T16:19:12.806Z,14.70
2022-10-04T16:21:42.755Z,14.60
2022-10-04T16:24:21.574Z,14.50
2022-10-04T16:26:51.161Z,14.40
2022-10-04T16:29:36.097Z,14.30
2022-10-04T16:32:29.256Z,14.20
2022-10-04T16:35:05.643Z,14.00
2022-10-04T16:37:32.486Z,13.90
2022-10-04T16:40:18.238Z,13.70
2022-10-04T16:42:45.036Z,13.40
2022-10-04T16:45:14.556Z,13.30
2022-10-04T16:47:52.890Z,13.10
2022-10-04T16:51:02.082Z,12.90
2022-10-04T16:53:50.665Z,12.70
2022-10-04T16:56:24.632Z,12.50
2022-10-04T16:59:13.554Z,12.30
2022-10-04T17:01:54.967Z,12.10
2022-10-04T17:04:38.185Z,11.90
2022-10-04T17:07:13.900Z,11.80
2022-10-04T17:09:47.669Z,11.60
2022-10-04T17:12:28.434Z,11.60
2022-10-04T17:15:10.218Z,11.50
2022-10-04T17:17:46.043Z,11.30
2022-10-04T17:20:29.701Z,11.20
2022-10-04T17:23:33.997Z,11.20
2022-10-04T17:26:38.589Z,11.00
2022-10-04T17:29:18.152Z,10.80
2022-10-04T17:31:57.262Z,10.90
2022-10-04T17:35:09.929Z,10.70
2022-10-04T17:37:39.924Z,10.60
2022-10-04T17:40:12.917Z,10.50
2022-10-04T17:45:27.329Z,10.40
2022-10-04T17:48:29.242Z,10.30
2022-10-04T17:51:23.461Z,10.10
2022-10-04T17:54:15.126Z,10.10
2022-10-04T18:05:00.618Z,9.70
2022-10-04T18:07:43.732Z,9.60
2022-10-04T18:10:33.879Z,9.60
2022-10-04T18:13:24.967Z,9.60
2022-10-04T18:16:00.629Z,9.50
2022-10-04T18:18:39.550Z,9.70
2022-10-04T18:21:23.104Z,9.50
2022-10-04T18:24:17.583Z,9.40
2022-10-04T18:27:24.138Z,9.30
2022-10-04T18:30:18.943Z,9.40
2022-10-04T18:32:55.776Z,9.30
2022-10-04T18:35:27.403Z,9.20
2022-10-04T18:38:30.484Z,9.20
2022-10-04T18:40:59.237Z,9.10
2022-10-04T18:43:31.018Z,9.10
2022-10-04T18:46:23.328Z,9.10
2022-10-04T18:48:55.943Z,9.00
2022-10-04T18:51:26.247Z,9.00
2022-10-04T18:54:21.569Z,8.90
2022-10-04T18:57:19.746Z,8.80
2022-10-04T19:00:23.244Z,8.70
2022-10-04T19:03:07.772Z,8.60
2022-10-04T19:05:57.964Z,8.60
2022-10-04T19:08:33.706Z,8.60
2022-10-04T19:11:09.473Z,8.60
2022-10-04T19:13:57.640Z,8.50
2022-10-04T19:16:44.484Z,8.40
2022-10-04T19:19:17.858Z,8.40
2022-10-04T19:21:59.196Z,8.40
2022-10-04T19:24:55.478Z,8.40
2022-10-04T19:27:27.013Z,8.40
2022-10-04T19:30:02.828Z,8.40
2022-10-04T19:32:37.464Z,8.50
2022-10-04T19:35:22.775Z,8.30
2022-10-04T19:38:06.649Z,8.20
2022-10-04T19:40:56.557Z,8.20
2022-10-04T19:43:54.575Z,8.10
2022-10-04T19:46:44.065Z,8.10
2022-10-04T19:49:35.438Z,8.00
2022-10-04T19:52:37.157Z,7.90
2022-10-04T19:55:29.360Z,7.90
2022-10-04T19:58:38.969Z,7.90
2022-10-04T20:01:21.427Z,8.00
2022-10-04T20:04:08.909Z,7.80
2022-10-04T20:06:38.381Z,7.70
2022-10-04T20:09:47.844Z,7.70
2022-10-04T20:12:40.243Z,7.60
2022-10-04T20:15:16.825Z,7.50
2022-10-04T20:17:45.587Z,7.50
2022-10-04T20:20:37.804Z,7.50
2022-10-04T20:23:07.653Z,7.50
2022-10-04T20:25:58.838Z,7.40
2022-10-04T20:28:28.813Z,7.40
2022-10-04T20:30:58.447Z,7.40
2022-10-04T20:33:49.701Z,7.40
2022-10-04T20:36:19.588Z,7.40
2022-10-04T20:38:54.706Z,7.30
2022-10-04T20:41:49.293Z,7.30
2022-10-04T20:44:41.419Z,7.20
2022-10-04T20:47:29.067Z,7.10
2022-10-04T20:49:57.793Z,7.10
2022-10-04T20:52:32.993Z,7.00
2022-10-04T20:55:06.542Z,6.90
2022-10-04T20:57:40.568Z,6.90
2022-10-04T21:00:18.575Z,6.90
2022-10-04T21:02:45.525Z,6.90
2022-10-04T21:05:24.764Z,6.90
2022-10-04T21:08:14.190Z,6.90
2022-10-04T21:11:01.480Z,6.90
2022-10-04T21:13:48.432Z,6.90
2022-10-04T21:16:45.101Z,6.90
2022-10-04T21:19:31.213Z,6.90
2022-10-04T21:21:59.308Z,6.80
2022-10-04T21:24:50.367Z,6.80
2022-10-04T21:27:32.348Z,6.80
2022-10-04T21:30:01.006Z,6.80
2022-10-04T21:32:33.229Z,6.70
2022-10-04T21:35:00.581Z,6.70
2022-10-04T21:37:27.412Z,6.70
2022-10-04T21:39:54.486Z,6.60
2022-10-04T21:42:21.382Z,6.70
2022-10-04T21:44:48.379Z,6.70
2022-10-04T21:47:15.891Z,6.60
2022-10-04T21:49:42.726Z,6.60
2022-10-04T21:52:10.230Z,6.60
2022-10-04T21:54:37.077Z,6.60
2022-10-04T21:57:05.059Z,6.60
2022-10-04T21:59:31.991Z,6.50
2022-10-04T22:01:58.875Z,6.40
2022-10-04T22:04:25.734Z,6.50
2022-10-04T22:06:52.629Z,6.60
2022-10-04T22:09:19.765Z,6.40
2022-10-04T22:11:46.724Z,6.30
2022-10-04T22:14:13.559Z,6.30
2022-10-04T22:16:40.488Z,6.20
2022-10-04T22:19:07.339Z,6.20
2022-10-04T22:21:34.202Z,6.20
2022-10-04T22:24:04.061Z,6.20
2022-10-04T22:26:32.064Z,6.10
2022-10-04T22:28:58.923Z,6.20
2022-10-04T22:31:27.895Z,6.00
2022-10-04T22:33:55.595Z,6.00
2022-10-04T22:36:39.456Z,6.00
2022-10-04T22:39:09.321Z,6.00
2022-10-04T22:41:47.180Z,6.00
2022-10-04T22:44:30.270Z,5.90
2022-10-04T22:47:00.035Z,5.90
2022-10-04T22:49:32.222Z,5.90
2022-10-04T22:52:02.985Z,5.90
2022-10-04T22:54:35.107Z,5.90
2022-10-04T22:57:02.424Z,5.90
2022-10-04T22:59:37.614Z,5.90
2022-10-04T23:02:13.966Z,5.90
2022-10-04T23:04:52.217Z,5.90
2022-10-04T23:07:19.839Z,5.80
2022-10-04T23:09:47.418Z,5.80
2022-10-04T23:12:14.685Z,5.60
2022-10-04T23:14:41.756Z,5.80
2022-10-04T23:17:25.086Z,5.80
2022-10-04T23:22:49.307Z,5.90
2022-10-04T23:25:26.710Z,5.90
2022-10-04T23:27:58.361Z,6.00
2022-10-04T23:30:25.285Z,6.00
2022-10-04T23:32:56.670Z,6.00
2022-10-04T23:35:31.427Z,6.00
2022-10-04T23:37:58.352Z,6.00
2022-10-04T23:40:26.302Z,6.00
2022-10-04T23:42:56.566Z,6.00
2022-10-04T23:45:25.566Z,6.00
2022-10-04T23:47:55.419Z,6.00
2022-10-04T23:50:29.616Z,6.00
2022-10-04T23:53:04.337Z,6.00
2022-10-04T23:55:37.238Z,5.90
2022-10-04T23:58:11.944Z,5.90
